Time;durP1;ratioP1;P1;durP2;ratioP2;P2;SDS_P1;SDS_P2;PMS_P1;PMS_P2;Temp;Humidity;BMP_temperature;BMP_pressure;BME280_temperature;BME280_humidity;BME280_pressure;Samples;Min_cycle;Max_cycle;Signal;HPM_P1;HPM_P2
2023/07/28 00:01:40;;;;;;;1.90;1.40;;;;;;;13.59;67.49;98605.55;106264;1257;25302;-52
2023/07/28 00:04:10;;;;;;;2.90;1.50;;;;;;;13.61;67.49;98600.23;106409;1257;23554;-53
2023/07/28 00:06:39;;;;;;;16.60;2.30;;;;;;;13.63;67.65;98599.69;106322;1257;99509;-54
2023/07/28 00:09:09;;;;;;;4.90;1.70;;;;;;;13.63;67.65;98593.55;106375;1257;22663;-56
2023/07/28 00:11:38;;;;;;;3.80;1.50;;;;;;;13.66;67.75;98592.66;106336;1258;99144;-57
2023/07/28 00:14:07;;;;;;;3.80;1.40;;;;;;;13.70;67.78;98591.33;106471;1257;24254;-53
2023/07/28 00:16:37;;;;;;;1.70;1.30;;;;;;;13.73;67.80;98589.88;106354;1257;99354;-52
2023/07/28 00:19:06;;;;;;;4.40;1.70;;;;;;;13.76;67.77;98585.77;106436;1257;25302;-54
2023/07/28 00:21:35;;;;;;;1.50;1.30;;;;;;;13.80;67.83;98580.88;106433;1257;25316;-54
2023/07/28 00:24:05;;;;;;;3.40;1.60;;;;;;;13.84;67.91;98576.17;106404;1258;99722;-52
2023/07/28 00:26:34;;;;;;;1.90;1.60;;;;;;;13.89;67.99;98574.63;106518;1257;24369;-53
2023/07/28 00:29:06;;;;;;;3.30;1.50;;;;;;;13.92;67.93;98574.88;106366;1257;99440;-53
2023/07/28 00:31:35;;;;;;;4.50;1.60;;;;;;;13.94;68.03;98567.73;106412;1257;25342;-52
2023/07/28 00:34:05;;;;;;;2.20;1.40;;;;;;;13.96;68.11;98570.73;106534;1258;25244;-53
2023/07/28 00:36:34;;;;;;;2.10;1.80;;;;;;;13.97;67.97;98568.73;106397;1257;99643;-56
2023/07/28 00:39:04;;;;;;;2.10;1.50;;;;;;;13.97;68.03;98562.72;106365;1257;23019;-51
2023/07/28 00:41:32;;;;;;;1.90;1.40;;;;;;;13.97;68.02;98564.87;106241;1257;99295;-52
2023/07/28 00:44:02;;;;;;;2.60;1.50;;;;;;;13.96;67.89;98561.80;106355;1258;22561;-53
2023/07/28 00:46:31;;;;;;;1.90;1.40;;;;;;;13.94;68.02;98561.23;106449;1257;99686;-53
2023/07/28 00:49:03;;;;;;;4.10;1.80;;;;;;;13.94;68.06;98555.70;106384;1257;27791;-51
2023/07/28 00:51:32;;;;;;;7.60;1.50;;;;;;;13.92;68.11;98552.63;106410;1257;24402;-55
2023/07/28 00:54:03;;;;;;;2.90;1.20;;;;;;;13.91;68.14;98552.36;106411;1257;99129;-52
2023/07/28 00:56:32;;;;;;;5.80;1.60;;;;;;;13.89;68.32;98549.58;106459;1257;24195;-50
2023/07/28 00:59:02;;;;;;;5.80;1.40;;;;;;;13.88;68.41;98551.36;106378;1257;99298;-53
2023/07/28 01:01:31;;;;;;;2.00;1.30;;;;;;;13.89;68.43;98552.33;106414;1257;22654;-53
2023/07/28 01:04:00;;;;;;;2.10;1.40;;;;;;;13.90;68.48;98552.27;106447;1257;23887;-52
2023/07/28 01:06:44;;;;;;;3.20;1.80;;;;;;;13.91;68.49;98551.14;106412;1257;99181;-52
2023/07/28 01:09:18;;;;;;;2.40;1.50;;;;;;;13.94;68.65;98549.70;106484;1257;22530;-52
2023/07/28 01:11:57;;;;;;;2.60;1.30;;;;;;;13.90;68.54;98545.83;106357;1257;99290;-56
2023/07/28 01:14:27;;;;;;;2.20;1.40;;;;;;;13.87;68.69;98541.70;106421;1257;24212;-51
2023/07/28 01:16:56;;;;;;;2.30;1.50;;;;;;;13.86;68.72;98541.92;106430;1257;99350;-53
2023/07/28 01:19:25;;;;;;;3.00;1.80;;;;;;;13.90;68.88;98542.70;106478;1257;25241;-50
2023/07/28 01:22:25;;;;;;;2.50;1.30;;;;;;;13.94;69.05;98537.66;106454;1257;25413;-50
2023/07/28 01:25:09;;;;;;;2.80;1.60;;;;;;;13.97;68.95;98533.02;106370;1259;22537;-53
2023/07/28 01:27:42;;;;;;;4.40;1.20;;;;;;;13.98;69.00;98530.44;106395;1259;24401;-53
2023/07/28 01:30:12;;;;;;;5.30;1.50;;;;;;;14.00;69.11;98532.92;106383;1257;99129;-55
2023/07/28 01:32:41;;;;;;;1.80;1.40;;;;;;;14.00;69.11;98527.48;106431;1257;24395;-53
2023/07/28 01:35:10;;;;;;;2.10;1.40;;;;;;;14.01;69.21;98527.77;106360;1257;99383;-50
2023/07/28 01:37:39;;;;;;;3.00;1.80;;;;;;;14.02;69.19;98531.36;106470;1257;25299;-57
2023/07/28 01:40:08;;;;;;;3.60;1.80;;;;;;;14.02;69.19;98526.86;106385;1257;26443;-53
2023/07/28 01:42:38;;;;;;;4.50;1.40;;;;;;;14.03;69.29;98523.77;106338;1258;99229;-55
2023/07/28 01:45:08;;;;;;;3.40;1.70;;;;;;;14.04;69.24;98523.32;106364;1257;25426;-53
2023/07/28 01:47:37;;;;;;;2.40;1.30;;;;;;;14.05;69.35;98519.90;106368;1258;99125;-52
2023/07/28 01:50:06;;;;;;;1.90;1.40;;;;;;;14.07;69.40;98513.79;106445;1257;22557;-53
2023/07/28 01:52:35;;;;;;;3.60;1.80;;;;;;;14.08;69.44;98513.34;106402;1257;99572;-52
2023/07/28 01:55:06;;;;;;;4.80;1.40;;;;;;;14.10;69.37;98505.91;106443;1257;25359;-53
2023/07/28 01:57:38;;;;;;;4.30;1.50;;;;;;;14.12;69.39;98505.22;106414;1257;24221;-54
2023/07/28 02:00:08;;;;;;;2.10;1.40;;;;;;;14.16;69.50;98505.13;106508;1257;99684;-53
2023/07/28 02:02:37;;;;;;;2.60;1.50;;;;;;;14.17;69.54;98502.53;106349;1257;22526;-54
2023/07/28 02:05:07;;;;;;;2.50;1.40;;;;;;;14.18;69.49;98501.45;106344;1257;99355;-53
2023/07/28 02:07:36;;;;;;;2.90;1.50;;;;;;;14.16;69.48;98496.34;106308;1257;24193;-55
2023/07/28 02:10:05;;;;;;;5.00;2.10;;;;;;;14.14;69.51;98498.95;106337;1257;22631;-53
2023/07/28 02:12:34;;;;;;;3.60;1.90;;;;;;;14.10;69.59;98498.33;106376;1257;99198;-56
2023/07/28 02:15:05;;;;;;;3.80;1.90;;;;;;;14.10;69.64;98503.92;106470;1258;22666;-52
2023/07/28 02:17:34;;;;;;;2.30;1.70;;;;;;;14.13;69.71;98501.45;106315;1257;99238;-52
2023/07/28 02:20:04;;;;;;;2.00;1.40;;;;;;;14.14;69.80;98502.45;106632;1257;22612;-53
2023/07/28 02:22:33;;;;;;;3.00;1.90;;;;;;;14.15;69.86;98500.59;108099;1257;99537;-53
2023/07/28 02:25:03;;;;;;;3.70;1.70;;;;;;;14.18;69.80;98497.71;106404;1258;22669;-54
2023/07/28 02:27:32;;;;;;;2.70;1.40;;;;;;;14.20;69.78;98491.64;106556;1257;23877;-51
2023/07/28 02:30:01;;;;;;;1.50;1.30;;;;;;;14.21;69.90;98489.45;106371;1257;99062;-53
2023/07/28 02:32:30;;;;;;;4.00;1.80;;;;;;;14.21;69.94;98488.55;106382;1258;25311;-53
2023/07/28 02:34:59;;;;;;;2.60;1.40;;;;;;;14.21;70.14;98486.30;106370;1257;99820;-53
2023/07/28 02:37:28;;;;;;;2.10;1.30;;;;;;;14.20;70.13;98486.53;106463;1257;24211;-51
2023/07/28 02:39:57;;;;;;;4.00;1.60;;;;;;;14.21;70.20;98489.09;106435;1257;24385;-52
2023/07/28 02:42:26;;;;;;;1.60;1.30;;;;;;;14.24;70.24;98485.20;106374;1257;99193;-53
2023/07/28 02:44:55;;;;;;;2.50;1.70;;;;;;;14.26;70.20;98487.42;106462;1257;22537;-52
2023/07/28 02:47:24;;;;;;;4.40;1.60;;;;;;;14.29;70.24;98488.61;106815;1258;99547;-50
2023/07/28 02:49:54;;;;;;;2.00;1.80;;;;;;;14.31;70.27;98484.77;106418;1257;24234;-54
2023/07/28 02:52:23;;;;;;;3.60;1.50;;;;;;;14.34;70.18;98489.40;106438;1257;22529;-51
2023/07/28 02:54:52;;;;;;;5.30;1.70;;;;;;;14.34;70.22;98491.84;106450;1257;22543;-54
2023/07/28 02:57:21;;;;;;;3.10;1.90;;;;;;;14.34;70.36;98491.31;106414;1257;22520;-54
2023/07/28 02:59:51;;;;;;;5.70;1.60;;;;;;;14.36;70.49;98494.35;106350;1258;99086;-54
2023/07/28 03:02:20;;;;;;;2.90;1.60;;;;;;;14.37;70.53;98494.20;106343;1258;22527;-51
2023/07/28 03:04:49;;;;;;;3.40;1.90;;;;;;;14.38;70.71;98496.91;106502;1258;99367;-52
2023/07/28 03:07:18;;;;;;;3.50;1.80;;;;;;;14.41;70.72;98494.26;106532;1257;26520;-56
2023/07/28 03:09:48;;;;;;;5.30;1.50;;;;;;;14.42;70.54;98492.91;106344;1258;22545;-51
2023/07/28 03:12:17;;;;;;;2.30;1.40;;;;;;;14.44;70.61;98485.95;106494;1257;99086;-53
2023/07/28 03:14:46;;;;;;;2.00;1.60;;;;;;;14.46;70.57;98481.80;106623;1257;24234;-52
2023/07/28 03:17:15;;;;;;;3.00;1.80;;;;;;;14.41;70.49;98479.05;106696;1257;99247;-53
2023/07/28 03:19:44;;;;;;;3.20;1.70;;;;;;;14.42;70.60;98481.00;106704;1257;22529;-53
2023/07/28 03:22:13;;;;;;;3.30;1.80;;;;;;;14.46;70.59;98478.77;106406;1257;23025;-53
2023/07/28 03:24:46;;;;;;;3.20;2.10;;;;;;;14.45;70.63;98473.58;106378;1257;99058;-52
2023/07/28 03:27:15;;;;;;;3.60;1.70;;;;;;;14.40;70.61;98469.31;106452;1258;25492;-51
2023/07/28 03:29:44;;;;;;;3.40;1.40;;;;;;;14.35;70.96;98463.95;106275;1257;99537;-51
2023/07/28 03:32:13;;;;;;;2.50;1.70;;;;;;;14.39;71.12;98462.77;110122;1257;22116;-53
2023/07/28 03:34:42;;;;;;;1.50;1.40;;;;;;;14.41;71.26;98458.67;109798;1258;99825;-54
2023/07/28 03:37:11;;;;;;;3.20;2.00;;;;;;;14.47;71.06;98455.10;106442;1257;24302;-54
2023/07/28 03:39:40;;;;;;;3.20;1.90;;;;;;;14.51;71.03;98454.00;106454;1258;22541;-52
2023/07/28 03:42:09;;;;;;;4.00;1.90;;;;;;;14.56;70.90;98451.41;106344;1258;99161;-52
2023/07/28 03:44:39;;;;;;;4.70;2.00;;;;;;;14.59;70.95;98451.70;106324;1257;25445;-56
2023/07/28 03:47:09;;;;;;;5.40;2.00;;;;;;;14.62;71.01;98452.80;106225;1258;99356;-51
2023/07/28 03:49:38;;;;;;;6.70;1.90;;;;;;;14.66;71.24;98448.10;106457;1259;22534;-56
2023/07/28 03:52:07;;;;;;;4.80;2.00;;;;;;;14.70;71.25;98446.02;106504;1257;25267;-51
2023/07/28 03:54:36;;;;;;;5.30;1.80;;;;;;;14.74;71.43;98448.14;106388;1258;99303;-52
2023/07/28 03:57:06;;;;;;;4.20;2.10;;;;;;;14.78;71.56;98450.38;106336;1257;23281;-51
2023/07/28 03:59:35;;;;;;;3.20;1.80;;;;;;;14.83;71.54;98450.84;106332;1257;99206;-53
2023/07/28 04:02:05;;;;;;;4.80;1.90;;;;;;;14.86;71.56;98451.10;106399;1258;22532;-54
2023/07/28 04:04:36;;;;;;;4.60;2.00;;;;;;;14.88;71.63;98445.11;106295;1258;99949;-55
2023/07/28 04:07:05;;;;;;;3.10;1.70;;;;;;;14.89;71.47;98446.80;106445;1258;22533;-51
2023/07/28 04:09:35;;;;;;;3.10;1.80;;;;;;;14.89;71.58;98446.66;106426;1257;22691;-54
2023/07/28 04:12:04;;;;;;;4.30;2.00;;;;;;;14.89;71.45;98448.20;106484;1258;99191;-51
2023/07/28 04:14:33;;;;;;;2.50;1.90;;;;;;;14.88;71.44;98444.13;106443;1258;22677;-55
2023/07/28 04:17:02;;;;;;;5.80;2.30;;;;;;;14.88;71.47;98441.95;106390;1258;99300;-51
2023/07/28 04:19:35;;;;;;;4.80;2.90;;;;;;;14.87;71.63;98441.36;106810;1259;23576;-52
2023/07/28 04:22:05;;;;;;;4.60;2.50;;;;;;;14.85;71.75;98438.21;106248;1257;24219;-53
2023/07/28 04:24:34;;;;;;;5.70;2.90;;;;;;;14.86;71.70;98441.84;106428;1258;99213;-52
2023/07/28 04:27:04;;;;;;;9.30;2.50;;;;;;;14.89;71.82;98448.23;106368;1258;23923;-54
2023/07/28 04:29:34;;;;;;;2.80;2.30;;;;;;;14.94;71.93;98443.95;106338;1258;99211;-54
2023/07/28 04:32:04;;;;;;;6.50;2.60;;;;;;;15.01;72.08;98441.44;106422;1257;24374;-55
2023/07/28 04:34:35;;;;;;;4.70;2.80;;;;;;;15.07;72.20;98437.96;106452;1258;99295;-52
2023/07/28 04:37:05;;;;;;;5.60;2.50;;;;;;;15.14;72.06;98434.87;106514;1258;24235;-52
2023/07/28 04:39:35;;;;;;;4.90;2.70;;;;;;;15.15;71.94;98433.25;106392;1257;22533;-53
2023/07/28 04:42:04;;;;;;;4.20;2.70;;;;;;;15.11;72.04;98428.17;106375;1257;99800;-51
2023/07/28 04:44:33;;;;;;;3.90;2.70;;;;;;;15.11;72.17;98422.85;106373;1258;25274;-56
2023/07/28 04:47:03;;;;;;;3.50;2.20;;;;;;;15.14;72.51;98421.18;106287;1257;99424;-54
2023/07/28 04:49:32;;;;;;;7.00;2.20;;;;;;;15.17;72.19;98419.75;106356;1258;22641;-53
2023/07/28 04:52:02;;;;;;;2.50;1.90;;;;;;;15.15;71.97;98421.81;106411;1258;22599;-54
2023/07/28 04:54:51;;;;;;;6.40;2.00;;;;;;;15.20;72.01;98418.95;106317;1258;99121;-52
2023/07/28 04:57:24;;;;;;;3.40;2.00;;;;;;;15.28;72.02;98416.48;106573;1258;22642;-51
2023/07/28 04:59:54;;;;;;;5.20;1.80;;;;;;;15.39;72.38;98419.52;106255;1258;99595;-52
2023/07/28 05:02:23;;;;;;;2.70;1.70;;;;;;;15.54;72.69;98416.13;106463;1258;25413;-50
2023/07/28 05:04:52;;;;;;;2.30;1.70;;;;;;;15.66;72.76;98410.83;106390;1258;99757;-54
2023/07/28 05:07:22;;;;;;;3.40;2.00;;;;;;;15.79;72.50;98406.36;106576;1258;22526;-55
2023/07/28 05:09:52;;;;;;;2.20;1.90;;;;;;;15.83;72.32;98404.77;106328;1257;277921;-53
2023/07/28 05:12:21;;;;;;;3.90;1.80;;;;;;;15.90;72.52;98401.88;106378;1258;99955;-53
2023/07/28 05:14:50;;;;;;;3.90;1.90;;;;;;;16.10;72.83;98399.58;106460;1258;22636;-52
2023/07/28 05:17:20;;;;;;;2.50;2.00;;;;;;;16.33;72.98;98395.67;106683;1258;99257;-54
2023/07/28 05:19:50;;;;;;;3.70;2.30;;;;;;;16.51;72.52;98389.59;106294;1258;22566;-53
2023/07/28 05:22:23;;;;;;;4.60;1.80;;;;;;;16.50;71.65;98386.73;106636;1257;22642;-54
2023/07/28 05:24:52;;;;;;;4.90;1.90;;;;;;;16.36;71.52;98388.22;106404;1258;24241;-52
2023/07/28 05:27:23;;;;;;;2.40;2.00;;;;;;;16.35;72.00;98387.27;106685;1258;22670;-57
2023/07/28 05:29:56;;;;;;;5.40;2.10;;;;;;;16.49;71.80;98392.77;106460;1258;99770;-52
2023/07/28 05:32:25;;;;;;;4.80;2.10;;;;;;;16.63;71.62;98391.39;106355;1257;22572;-52
2023/07/28 05:35:00;;;;;;;3.20;1.90;;;;;;;16.74;71.50;98392.05;106296;1257;99688;-54
2023/07/28 05:37:34;;;;;;;3.10;2.00;;;;;;;16.85;71.29;98392.52;106411;1257;23915;-50
2023/07/28 05:40:17;;;;;;;3.80;2.20;;;;;;;16.92;71.09;98393.64;106308;1258;22746;-54
2023/07/28 05:42:47;;;;;;;2.80;1.90;;;;;;;16.96;70.96;98392.49;106437;1257;99616;-52
2023/07/28 05:45:17;;;;;;;2.00;1.70;;;;;;;17.04;71.06;98387.70;106490;1257;25233;-52
2023/07/28 05:47:51;;;;;;;2.40;1.60;;;;;;;17.14;71.53;98388.43;106367;1258;99323;-52
2023/07/28 05:50:21;;;;;;;13.90;2.80;;;;;;;17.23;71.37;98389.86;106477;1258;24234;-53
2023/07/28 05:52:50;;;;;;;6.50;1.90;;;;;;;17.29;71.44;98389.70;106360;1259;99564;-55
2023/07/28 05:55:22;;;;;;;5.60;1.80;;;;;;;17.35;71.31;98383.34;106492;1258;22542;-55
2023/07/28 05:57:51;;;;;;;9.20;2.10;;;;;;;17.32;70.92;98378.54;106392;1258;22663;-54
2023/07/28 06:00:21;;;;;;;5.90;2.00;;;;;;;17.30;70.89;98375.73;106468;1258;99189;-58
2023/07/28 06:02:51;;;;;;;6.80;1.80;;;;;;;17.36;71.00;98375.99;106466;1257;24197;-55
2023/07/28 06:05:21;;;;;;;3.30;2.10;;;;;;;17.29;70.49;98371.04;106459;1258;99304;-53
2023/07/28 06:07:50;;;;;;;7.10;3.50;;;;;;;17.21;70.68;98370.88;106402;1258;25239;-52
2023/07/28 06:10:19;;;;;;;3.70;2.20;;;;;;;17.19;70.86;98371.08;106512;1257;23928;-54
2023/07/28 06:12:48;;;;;;;3.20;1.90;;;;;;;17.27;70.74;98371.10;106369;1258;99167;-53
2023/07/28 06:15:18;;;;;;;5.10;2.10;;;;;;;17.43;70.97;98369.36;106464;1258;22713;-55
2023/07/28 06:17:47;;;;;;;4.80;1.90;;;;;;;17.61;70.73;98368.40;106257;1258;99174;-57
2023/07/28 06:20:17;;;;;;;4.00;2.30;;;;;;;17.79;70.58;98369.21;106505;1258;22790;-54
2023/07/28 06:22:46;;;;;;;4.10;1.70;;;;;;;17.98;70.54;98370.70;106593;1258;99846;-54
2023/07/28 06:25:16;;;;;;;3.30;1.80;;;;;;;18.15;70.47;98365.66;106677;1257;22529;-55
2023/07/28 06:27:45;;;;;;;3.30;2.00;;;;;;;18.26;70.24;98364.85;106512;1257;24729;-54
2023/07/28 06:30:15;;;;;;;3.90;2.20;;;;;;;18.34;70.03;98367.02;106486;1258;99573;-54
2023/07/28 06:32:46;;;;;;;4.10;2.30;;;;;;;18.42;69.66;98371.57;106452;1258;24269;-54
2023/07/28 06:35:16;;;;;;;3.20;1.90;;;;;;;18.46;69.64;98372.30;106212;1258;98812;-55
2023/07/28 06:37:46;;;;;;;5.80;2.10;;;;;;;18.52;69.68;98373.62;106514;1257;26569;-53
2023/07/28 06:40:16;;;;;;;3.40;2.10;;;;;;;18.61;69.79;98370.91;106443;1257;24743;-54
2023/07/28 06:42:47;;;;;;;7.10;2.20;;;;;;;18.73;69.84;98364.55;106243;1257;98962;-52
2023/07/28 06:45:16;;;;;;;6.50;1.70;;;;;;;18.89;69.80;98366.16;106931;1257;25373;-55
2023/07/28 06:47:45;;;;;;;9.20;2.00;;;;;;;19.07;69.60;98365.63;106410;1257;99458;-53
2023/07/28 06:50:15;;;;;;;3.30;2.10;;;;;;;19.24;69.42;98362.73;107493;1258;24201;-58
2023/07/28 06:52:44;;;;;;;7.70;2.00;;;;;;;19.38;69.19;98360.61;106300;1259;99989;-52
2023/07/28 06:55:20;;;;;;;3.40;1.90;;;;;;;19.53;68.89;98361.36;106678;1257;22584;-54
2023/07/28 06:57:50;;;;;;;14.70;2.20;;;;;;;19.69;68.53;98355.94;106644;1258;25268;-55
2023/07/28 07:00:19;;;;;;;13.70;2.50;;;;;;;19.89;68.30;98356.83;106409;1257;99370;-53
2023/07/28 07:02:49;;;;;;;4.10;1.50;;;;;;;20.18;68.80;98350.23;106468;1258;24190;-53
2023/07/28 07:05:18;;;;;;;4.40;2.10;;;;;;;20.70;68.61;98345.47;106436;1257;99824;-53
2023/07/28 07:07:48;;;;;;;6.30;2.30;;;;;;;21.17;67.95;98349.74;107792;1258;23878;-55
2023/07/28 07:10:17;;;;;;;8.80;2.20;;;;;;;21.69;68.07;98345.17;106801;1258;24289;-56
2023/07/28 07:12:46;;;;;;;6.70;1.90;;;;;;;22.38;67.83;98340.59;106415;1258;99408;-55
2023/07/28 07:15:15;;;;;;;10.70;2.70;;;;;;;23.06;67.14;98342.67;106377;1257;22643;-56
2023/07/28 07:17:45;;;;;;;4.80;2.30;;;;;;;23.73;66.65;98339.77;106388;1257;99268;-55
2023/07/28 07:20:16;;;;;;;3.70;2.60;;;;;;;23.98;65.40;98342.95;106346;1257;22540;-56
2023/07/28 07:22:45;;;;;;;7.80;3.50;;;;;;;24.47;65.07;98338.27;106449;1258;99420;-58
2023/07/28 07:25:15;;;;;;;5.50;2.20;;;;;;;25.08;64.30;98340.77;106530;1258;22647;-55
2023/07/28 07:27:44;;;;;;;4.80;2.20;;;;;;;25.42;62.88;98343.23;106380;1259;25337;-54
2023/07/28 07:30:13;;;;;;;3.40;1.70;;;;;;;25.46;62.40;98346.98;106278;1258;99226;-54
2023/07/28 07:32:42;;;;;;;2.60;1.90;;;;;;;25.45;62.01;98342.74;106496;1257;25243;-51
2023/07/28 07:35:12;;;;;;;5.70;2.00;;;;;;;25.49;61.57;98339.63;106319;1258;99682;-55
2023/07/28 07:37:40;;;;;;;16.90;4.40;;;;;;;25.44;61.14;98335.33;106418;1259;25107;-53
2023/07/28 07:40:09;;;;;;;6.30;2.10;;;;;;;25.51;60.97;98329.27;106459;1258;24694;-53
2023/07/28 07:42:49;;;;;;;19.30;4.10;;;;;;;25.37;59.96;98333.42;106321;1258;99310;-54
2023/07/28 07:45:18;;;;;;;3.90;2.30;;;;;;;25.07;59.44;98340.61;106447;1259;25306;-53
2023/07/28 07:47:48;;;;;;;5.20;2.00;;;;;;;24.58;58.78;98340.66;106452;1259;99125;-54
2023/07/28 07:50:17;;;;;;;4.10;2.00;;;;;;;24.27;59.12;98342.59;107425;1257;24214;-53
2023/07/28 07:52:46;;;;;;;4.00;2.20;;;;;;;24.28;58.95;98343.20;106395;1257;103345;-52
2023/07/28 07:55:15;;;;;;;3.30;1.90;;;;;;;24.35;58.73;98341.73;106207;1257;22547;-53
2023/07/28 07:57:44;;;;;;;4.50;2.10;;;;;;;24.44;57.95;98339.15;106342;1258;23893;-56
2023/07/28 08:00:14;;;;;;;2.20;1.90;;;;;;;24.49;57.88;98338.50;106391;1257;99341;-54
2023/07/28 08:02:43;;;;;;;2.60;1.70;;;;;;;24.65;57.86;98341.17;106476;1257;22553;-53
2023/07/28 08:05:14;;;;;;;4.00;1.90;;;;;;;24.75;57.10;98348.02;106504;1257;99263;-52
2023/07/28 08:07:44;;;;;;;5.00;2.20;;;;;;;24.59;56.41;98342.91;106420;1258;25364;-53
2023/07/28 08:10:13;;;;;;;2.90;1.90;;;;;;;24.44;56.13;98340.83;106453;1258;22532;-55
2023/07/28 08:12:44;;;;;;;3.00;2.00;;;;;;;24.27;55.96;98338.65;106262;1258;99663;-56
2023/07/28 08:15:13;;;;;;;2.40;1.90;;;;;;;24.07;55.85;98341.44;106260;1258;23251;-55
2023/07/28 08:17:42;;;;;;;2.70;1.80;;;;;;;23.94;55.75;98341.24;106387;1258;99542;-54
2023/07/28 08:20:12;;;;;;;4.40;2.00;;;;;;;23.82;55.56;98341.14;106412;1257;22786;-55
2023/07/28 08:22:40;;;;;;;6.20;2.00;;;;;;;23.67;55.27;98345.60;106123;1258;100007;-53
2023/07/28 08:25:10;;;;;;;3.40;2.10;;;;;;;23.41;54.68;98340.52;110091;1259;22122;-54
2023/07/28 08:27:38;;;;;;;5.70;1.80;;;;;;;23.06;54.55;98341.39;110115;1261;22985;-54
2023/07/28 08:30:08;;;;;;;3.00;2.20;;;;;;;22.90;54.69;98340.49;106785;1264;100073;-53
2023/07/28 08:32:38;;;;;;;5.20;2.30;;;;;;;22.77;54.26;98345.73;106806;1258;24236;-53
2023/07/28 08:35:08;;;;;;;5.00;1.90;;;;;;;22.64;54.42;98347.38;106183;1257;99665;-54
2023/07/28 08:37:37;;;;;;;6.00;1.90;;;;;;;22.53;54.25;98348.92;106427;1259;24475;-55
2023/07/28 08:40:07;;;;;;;3.70;2.10;;;;;;;22.36;54.22;98347.30;106421;1259;22526;-55
2023/07/28 08:42:40;;;;;;;3.00;1.70;;;;;;;22.18;54.19;98349.71;106327;1257;99531;-54
2023/07/28 08:45:09;;;;;;;4.00;2.00;;;;;;;22.05;54.44;98347.62;106351;1257;22525;-57
2023/07/28 08:47:38;;;;;;;2.90;1.70;;;;;;;21.97;54.45;98345.23;106310;1260;100154;-55
2023/07/28 08:50:07;;;;;;;3.10;1.90;;;;;;;21.91;54.45;98349.86;106425;1257;23191;-55
2023/07/28 08:52:36;;;;;;;3.70;2.20;;;;;;;21.84;54.02;98345.40;106307;1259;100892;-53
2023/07/28 08:55:06;;;;;;;5.10;2.10;;;;;;;21.67;53.87;98349.94;106469;1258;24201;-52
2023/07/28 08:57:35;;;;;;;3.20;1.80;;;;;;;21.46;53.38;98348.88;106317;1258;25363;-53
2023/07/28 09:00:13;;;;;;;3.50;2.00;;;;;;;21.17;53.59;98348.17;106258;1258;99765;-54
2023/07/28 09:02:42;;;;;;;2.90;1.80;;;;;;;20.96;53.53;98344.20;106524;1263;24222;-51
2023/07/28 09:05:33;;;;;;;4.50;2.00;;;;;;;20.83;53.84;98342.02;106167;1258;99420;-54
2023/07/28 09:08:02;;;;;;;3.30;2.30;;;;;;;20.78;53.83;98343.55;106177;1260;22593;-52
2023/07/28 09:10:49;;;;;;;3.60;1.90;;;;;;;20.82;53.85;98345.48;106256;1258;99334;-54
2023/07/28 09:13:19;;;;;;;3.50;2.30;;;;;;;20.90;54.13;98341.16;106210;1257;23011;-54
2023/07/28 09:15:49;;;;;;;2.30;1.70;;;;;;;21.06;54.23;98348.03;106323;1257;24203;-53
2023/07/28 09:18:18;;;;;;;3.70;2.70;;;;;;;21.16;53.91;98349.67;106338;1258;99235;-53
2023/07/28 09:20:47;;;;;;;3.30;1.90;;;;;;;21.08;53.53;98350.60;106479;1260;25366;-56
2023/07/28 09:23:16;;;;;;;3.90;2.20;;;;;;;20.84;53.70;98348.55;106349;1257;99181;-55
2023/07/28 09:25:45;;;;;;;2.70;2.10;;;;;;;20.73;54.09;98352.89;106310;1259;22591;-54
2023/07/28 09:28:15;;;;;;;4.40;2.00;;;;;;;20.72;54.18;98356.09;106288;1258;22819;-53
2023/07/28 09:30:46;;;;;;;4.50;2.00;;;;;;;20.68;54.32;98356.90;106348;1258;99042;-55
2023/07/28 09:33:33;;;;;;;3.50;2.10;;;;;;;20.68;54.38;98357.72;106421;1258;22592;-54
2023/07/28 09:36:13;;;;;;;2.40;1.60;;;;;;;20.63;54.29;98362.14;106296;1258;99760;-56
2023/07/28 09:38:42;;;;;;;3.40;2.20;;;;;;;20.62;54.33;98360.75;106517;1259;22546;-55
2023/07/28 09:41:11;;;;;;;2.90;2.30;;;;;;;20.58;54.47;98360.05;106288;1258;99864;-54
2023/07/28 09:43:42;;;;;;;8.70;2.10;;;;;;;20.53;54.30;98359.92;106385;1257;24195;-55
2023/07/28 09:46:14;;;;;;;5.90;2.00;;;;;;;20.51;54.56;98360.81;106434;1259;22547;-54
2023/07/28 09:48:51;;;;;;;4.50;1.60;;;;;;;20.52;54.74;98362.84;106300;1259;99284;-57
2023/07/28 09:51:26;;;;;;;2.60;1.50;;;;;;;20.57;54.71;98362.28;106532;1258;22570;-54
2023/07/28 09:54:04;;;;;;;5.60;2.10;;;;;;;20.57;54.48;98360.01;106267;1258;99287;-55
2023/07/28 09:56:36;;;;;;;6.90;2.10;;;;;;;20.59;54.69;98359.80;106390;1261;22554;-54
2023/07/28 09:59:12;;;;;;;5.00;1.70;;;;;;;20.66;54.81;98361.30;106352;1258;99437;-55
2023/07/28 10:01:44;;;;;;;4.30;1.60;;;;;;;20.71;54.73;98361.30;106439;1258;22654;-53
2023/07/28 10:04:16;;;;;;;3.10;1.90;;;;;;;20.81;54.90;98359.17;106452;1257;24398;-56
2023/07/28 10:06:47;;;;;;;4.10;1.70;;;;;;;20.94;54.99;98357.66;106390;1257;98951;-54
2023/07/28 10:09:28;;;;;;;5.30;1.80;;;;;;;21.08;54.97;98359.96;106478;1261;22682;-54
2023/07/28 10:12:00;;;;;;;2.30;1.60;;;;;;;21.20;54.82;98359.31;106332;1259;99166;-51
2023/07/28 10:14:37;;;;;;;2.90;1.80;;;;;;;21.25;54.86;98361.98;106398;1259;24212;-54
2023/07/28 10:17:17;;;;;;;6.60;1.80;;;;;;;21.32;54.79;98357.86;106371;1257;101014;-52
2023/07/28 10:19:46;;;;;;;6.00;1.90;;;;;;;21.39;54.66;98359.90;106357;1258;25648;-53
2023/07/28 10:22:16;;;;;;;4.90;2.00;;;;;;;21.40;54.89;98364.16;106528;1257;24266;-52
2023/07/28 10:25:08;;;;;;;2.60;1.60;;;;;;;21.42;54.77;98365.20;106722;1258;99849;-55
2023/07/28 10:27:49;;;;;;;3.20;1.60;;;;;;;21.47;54.85;98366.04;106342;1258;24220;-54
2023/07/28 10:30:20;;;;;;;3.60;2.10;;;;;;;21.43;54.53;98365.13;106316;1257;99240;-56
2023/07/28 10:32:55;;;;;;;3.10;1.80;;;;;;;21.24;54.67;98372.17;106484;1260;25338;-51
2023/07/28 10:35:29;;;;;;;2.90;1.80;;;;;;;21.19;54.82;98370.77;106283;1258;99114;-57
2023/07/28 10:38:28;;;;;;;3.40;1.60;;;;;;;21.22;54.98;98369.52;106571;1258;22560;-54
2023/07/28 10:41:15;;;;;;;15.60;2.50;;;;;;;21.23;54.88;98372.90;106316;1258;100161;-51
2023/07/28 10:43:46;;;;;;;3.60;1.70;;;;;;;21.24;54.88;98370.01;106293;1259;25349;-52
2023/07/28 10:46:18;;;;;;;10.80;2.60;;;;;;;21.27;55.09;98367.40;106332;1257;24316;-51
2023/07/28 10:48:50;;;;;;;5.10;1.90;;;;;;;21.32;54.86;98367.79;107588;1257;99029;-56
2023/07/28 10:51:24;;;;;;;6.30;1.80;;;;;;;21.38;55.00;98368.86;106436;1257;24151;-59
2023/07/28 10:53:58;;;;;;;3.20;1.50;;;;;;;21.46;55.06;98373.84;106361;1257;99135;-57
2023/07/28 10:56:28;;;;;;;3.70;1.80;;;;;;;21.57;55.04;98373.02;106866;1257;25558;-52
2023/07/28 10:58:58;;;;;;;5.00;1.80;;;;;;;21.60;55.04;98378.67;106443;1257;99795;-56
2023/07/28 11:01:38;;;;;;;2.80;1.80;;;;;;;21.65;55.13;98380.63;106355;1257;24266;-54
2023/07/28 11:04:18;;;;;;;8.60;1.90;;;;;;;21.72;55.00;98380.39;106428;1257;24218;-53
2023/07/28 11:06:49;;;;;;;4.20;1.90;;;;;;;21.74;55.02;98383.16;106360;1258;99060;-55
2023/07/28 11:09:22;;;;;;;2.90;1.90;;;;;;;21.77;54.88;98382.72;106341;1257;27416;-58
2023/07/28 11:11:52;;;;;;;4.00;1.90;;;;;;;21.76;54.92;98385.04;106302;1257;99236;-54
2023/07/28 11:14:20;;;;;;;5.00;1.90;;;;;;;21.80;54.93;98386.02;110187;1257;22256;-54
2023/07/28 11:16:49;;;;;;;2.70;1.90;;;;;;;21.79;54.99;98388.81;110041;1257;102211;-54
2023/07/28 11:19:24;;;;;;;4.20;2.10;;;;;;;21.79;55.08;98384.15;108730;1257;22527;-55
2023/07/28 11:21:55;;;;;;;5.80;2.20;;;;;;;21.81;54.96;98376.91;106306;1257;23253;-56
2023/07/28 11:24:25;;;;;;;8.10;1.90;;;;;;;21.91;55.10;98375.70;106356;1257;101996;-53
2023/07/28 11:26:54;;;;;;;2.50;1.80;;;;;;;22.03;54.96;98374.80;106372;1257;25348;-54
2023/07/28 11:29:23;;;;;;;3.60;2.20;;;;;;;22.26;54.99;98369.89;106300;1257;99162;-57
2023/07/28 11:31:52;;;;;;;2.90;2.10;;;;;;;22.69;54.95;98368.41;106433;1257;23920;-55
2023/07/28 11:34:21;;;;;;;2.80;1.90;;;;;;;23.15;55.01;98366.55;106549;1257;25368;-56
2023/07/28 11:36:50;;;;;;;5.00;2.80;;;;;;;23.58;54.60;98365.27;106492;1258;99044;-54
2023/07/28 11:39:21;;;;;;;3.40;2.40;;;;;;;23.99;54.51;98367.30;106413;1257;25831;-56
2023/07/28 11:41:53;;;;;;;3.50;2.30;;;;;;;24.17;54.09;98368.92;106466;1257;99246;-55